Time;durP1;ratioP1;P1;durP2;ratioP2;P2;SDS_P1;SDS_P2;PMS_P1;PMS_P2;Temp;Humidity;BMP_temperature;BMP_pressure;BME280_temperature;BME280_humidity;BME280_pressure;Samples;Min_cycle;Max_cycle;Signal;HPM_P1;HPM_P2
2023/05/29 00:00:13;;;;;;;12.82;3.50;;;16.70;92.30;;;;;;4979582;28;20097;-91
2023/05/29 00:02:44;;;;;;;11.70;3.50;;;16.70;92.30;;;;;;4963684;28;20058;-92
2023/05/29 00:05:11;;;;;;;15.55;3.55;;;16.60;92.30;;;;;;4963823;28;20035;-92
2023/05/29 00:07:37;;;;;;;14.32;3.08;;;16.50;92.30;;;;;;4963789;28;20051;-93
2023/05/29 00:10:05;;;;;;;13.50;3.25;;;16.50;92.40;;;;;;4981304;28;20114;-94
2023/05/29 00:12:31;;;;;;;14.75;3.88;;;16.50;92.50;;;;;;4963517;28;20062;-93
2023/05/29 00:14:57;;;;;;;15.88;4.28;;;16.40;92.60;;;;;;4978732;28;20019;-93
2023/05/29 00:17:23;;;;;;;14.48;3.40;;;16.40;92.60;;;;;;4978956;28;20066;-92
2023/05/29 00:19:49;;;;;;;17.42;3.40;;;16.30;92.60;;;;;;4979287;28;20098;-93
2023/05/29 00:22:15;;;;;;;16.95;3.70;;;16.30;92.60;;;;;;4962951;28;20088;-91
2023/05/29 00:24:41;;;;;;;13.80;3.40;;;16.20;92.70;;;;;;4979481;28;20131;-94
2023/05/29 00:27:08;;;;;;;13.95;3.28;;;16.20;92.70;;;;;;4963054;28;20030;-93
2023/05/29 00:29:35;;;;;;;14.20;3.10;;;16.10;92.80;;;;;;4962853;28;20027;-94
2023/05/29 00:32:01;;;;;;;14.95;3.28;;;16.10;92.90;;;;;;4978976;28;20026;-94
2023/05/29 00:34:27;;;;;;;19.35;4.18;;;16.10;92.90;;;;;;4962726;28;20027;-93
2023/05/29 00:36:55;;;;;;;13.55;3.13;;;16.00;92.90;;;;;;4962648;28;20510;-92
2023/05/29 00:39:21;;;;;;;10.77;3.33;;;16.00;93.00;;;;;;4962926;28;20495;-93
2023/05/29 00:41:51;;;;;;;15.82;3.03;;;15.90;92.90;;;;;;4962801;28;20481;-90
2023/05/29 00:44:20;;;;;;;15.32;3.60;;;15.90;93.00;;;;;;4963169;28;20027;-92
2023/05/29 00:46:56;;;;;;;15.95;3.33;;;15.90;93.20;;;;;;4979047;28;20018;-91
2023/05/29 00:49:23;;;;;;;16.40;2.95;;;15.80;93.00;;;;;;4977947;28;20114;-92
2023/05/29 00:51:53;;;;;;;13.65;3.10;;;15.80;93.00;;;;;;4963256;28;20046;-93
2023/05/29 00:54:23;;;;;;;13.15;3.42;;;15.70;92.90;;;;;;4979488;28;20026;-94
2023/05/29 00:56:48;;;;;;;15.37;3.43;;;15.70;93.00;;;;;;4979306;28;20075;-94
2023/05/29 00:59:15;;;;;;;17.30;3.65;;;15.70;92.90;;;;;;4981116;28;20030;-92
2023/05/29 01:01:42;;;;;;;13.20;3.15;;;15.60;92.90;;;;;;4973046;28;20027;-91
2023/05/29 01:04:14;;;;;;;17.92;3.50;;;15.60;93.00;;;;;;4974995;28;20065;-91
2023/05/29 01:06:41;;;;;;;18.40;3.13;;;15.60;93.00;;;;;;4991411;28;20042;-90
2023/05/29 01:09:06;;;;;;;14.48;3.15;;;15.50;92.90;;;;;;4974892;28;20058;-91
2023/05/29 01:11:53;;;;;;;12.93;2.70;;;15.50;93.00;;;;;;4967727;28;20057;-91
2023/05/29 01:14:49;;;;;;;19.60;3.72;;;15.50;93.00;;;;;;4979765;28;20031;-92
2023/05/29 01:17:20;;;;;;;13.05;2.95;;;15.40;93.20;;;;;;4977701;28;20053;-94
2023/05/29 01:20:00;;;;;;;14.45;3.25;;;15.40;93.30;;;;;;4977784;28;20035;-93
2023/05/29 01:22:44;;;;;;;14.40;2.70;;;15.40;93.20;;;;;;4978074;28;20058;-94
2023/05/29 01:25:21;;;;;;;9.43;3.35;;;15.30;93.30;;;;;;4978791;28;20105;-93
2023/05/29 01:27:48;;;;;;;13.98;3.17;;;15.30;93.40;;;;;;4978266;28;20034;-93
2023/05/29 01:30:16;;;;;;;13.63;3.20;;;15.20;93.40;;;;;;4977523;28;20015;-93
2023/05/29 01:32:42;;;;;;;19.67;3.67;;;15.20;93.50;;;;;;4978329;28;20401;-92
2023/05/29 01:35:08;;;;;;;14.57;3.03;;;15.20;93.60;;;;;;4964828;28;20089;-94
2023/05/29 01:37:34;;;;;;;17.25;3.28;;;15.10;93.60;;;;;;4963415;28;20031;-93
2023/05/29 01:40:01;;;;;;;19.08;3.78;;;15.10;93.70;;;;;;4963640;28;20050;-94
2023/05/29 01:42:28;;;;;;;21.27;3.30;;;15.10;93.70;;;;;;4978378;28;20153;-92
2023/05/29 01:44:55;;;;;;;14.07;2.85;;;15.00;93.70;;;;;;4962240;28;20457;-93
2023/05/29 01:47:23;;;;;;;15.68;3.78;;;15.00;93.80;;;;;;4978228;28;20023;-93
2023/05/29 01:49:51;;;;;;;12.20;2.50;;;15.00;93.80;;;;;;4961161;28;20441;-92
2023/05/29 01:52:18;;;;;;;15.57;2.92;;;15.00;93.80;;;;;;4977258;28;20070;-92
2023/05/29 01:54:44;;;;;;;12.23;2.85;;;14.90;93.80;;;;;;4961650;28;20053;-93
2023/05/29 01:57:11;;;;;;;18.27;2.97;;;14.90;93.90;;;;;;4962582;28;20121;-95
2023/05/29 01:59:38;;;;;;;14.13;3.17;;;14.90;94.00;;;;;;4960878;28;20031;-92
2023/05/29 02:02:08;;;;;;;11.05;2.78;;;14.80;94.10;;;;;;4962539;28;20034;-93
2023/05/29 02:04:33;;;;;;;17.02;3.00;;;14.80;94.20;;;;;;4965969;28;20031;-94
2023/05/29 02:06:59;;;;;;;14.50;3.15;;;14.80;94.20;;;;;;4961172;28;20031;-94
2023/05/29 02:09:25;;;;;;;18.27;3.47;;;14.80;94.30;;;;;;4961876;28;20033;-94
2023/05/29 02:11:51;;;;;;;13.35;3.00;;;14.70;94.30;;;;;;4960920;28;20050;-93
2023/05/29 02:14:17;;;;;;;17.83;3.65;;;14.70;94.40;;;;;;4977975;28;20023;-93
2023/05/29 02:16:43;;;;;;;14.90;3.03;;;14.70;94.50;;;;;;4961541;28;20114;-94
2023/05/29 02:19:09;;;;;;;18.95;3.10;;;14.70;94.60;;;;;;4961265;28;20057;-93
2023/05/29 02:21:40;;;;;;;18.98;3.65;;;14.60;94.50;;;;;;4961860;28;20404;-93
2023/05/29 02:24:07;;;;;;;14.70;3.47;;;14.60;94.50;;;;;;4976970;28;20030;-94
2023/05/29 02:26:32;;;;;;;18.00;3.47;;;14.60;94.50;;;;;;4961340;28;20380;-90
2023/05/29 02:28:58;;;;;;;15.60;3.38;;;14.50;94.60;;;;;;4976870;28;20058;-90
2023/05/29 02:31:24;;;;;;;22.02;3.58;;;14.50;94.70;;;;;;4971402;28;20559;-92
2023/05/29 02:33:50;;;;;;;21.05;3.67;;;14.40;94.70;;;;;;4960640;28;20093;-91
2023/05/29 02:36:16;;;;;;;10.77;2.65;;;14.40;94.80;;;;;;4976979;28;20027;-92
2023/05/29 02:38:41;;;;;;;18.10;3.08;;;14.40;94.90;;;;;;4960689;28;20031;-93
2023/05/29 02:41:07;;;;;;;14.57;3.45;;;14.40;95.00;;;;;;4960373;28;20035;-94
2023/05/29 02:43:33;;;;;;;12.23;3.08;;;14.30;95.10;;;;;;4960860;28;20027;-93
2023/05/29 02:45:59;;;;;;;14.02;3.13;;;14.30;95.20;;;;;;4960959;28;20499;-92
2023/05/29 02:48:25;;;;;;;14.80;3.10;;;14.30;95.30;;;;;;4960780;28;20033;-93
2023/05/29 02:50:51;;;;;;;14.55;3.25;;;14.20;95.30;;;;;;4960453;28;20019;-91
2023/05/29 02:53:17;;;;;;;17.58;3.35;;;14.20;95.40;;;;;;4960417;28;20027;-92
2023/05/29 02:55:43;;;;;;;13.57;3.17;;;14.20;95.50;;;;;;4960475;28;20051;-90
2023/05/29 02:58:08;;;;;;;15.43;3.42;;;14.10;95.50;;;;;;4960342;28;20037;-90
2023/05/29 03:00:34;;;;;;;19.63;3.17;;;14.20;95.60;;;;;;4960608;28;20452;-91
2023/05/29 03:03:00;;;;;;;12.70;3.28;;;14.10;95.90;;;;;;4960384;28;20448;-91
2023/05/29 03:05:26;;;;;;;19.42;3.35;;;14.10;95.70;;;;;;4960925;28;20034;-90
2023/05/29 03:07:51;;;;;;;16.35;3.22;;;14.00;95.70;;;;;;4960853;28;20050;-91
2023/05/29 03:10:17;;;;;;;17.92;3.53;;;14.00;95.80;;;;;;4980668;28;20019;-88
2023/05/29 03:12:44;;;;;;;19.85;4.38;;;14.00;96.00;;;;;;4961639;28;20063;-91
2023/05/29 03:15:10;;;;;;;16.13;3.00;;;14.00;96.10;;;;;;4976220;28;20026;-91
2023/05/29 03:17:38;;;;;;;17.15;4.25;;;14.00;96.20;;;;;;4961078;28;20473;-91
2023/05/29 03:20:07;;;;;;;15.63;3.42;;;13.90;96.20;;;;;;4961834;28;20065;-92
2023/05/29 03:22:36;;;;;;;17.08;3.30;;;13.90;96.30;;;;;;4979981;28;20030;-90
2023/05/29 03:25:03;;;;;;;15.07;2.80;;;13.90;96.30;;;;;;4961611;28;20042;-92
2023/05/29 03:27:29;;;;;;;22.02;4.38;;;13.90;96.50;;;;;;4960113;28;20534;-93
2023/05/29 03:29:55;;;;;;;21.52;4.28;;;13.80;96.70;;;;;;4959445;28;20054;-93
2023/05/29 03:32:25;;;;;;;19.08;3.40;;;13.80;96.50;;;;;;4959498;28;20495;-91
2023/05/29 03:34:51;;;;;;;14.25;3.17;;;13.70;96.50;;;;;;4960189;28;20043;-95
2023/05/29 03:37:16;;;;;;;17.52;3.80;;;13.70;96.60;;;;;;4966094;28;20043;-91
2023/05/29 03:39:42;;;;;;;15.98;3.80;;;13.70;96.70;;;;;;4975966;28;20035;-91
2023/05/29 03:42:08;;;;;;;16.48;3.30;;;13.70;96.80;;;;;;4989235;28;20034;-92
2023/05/29 03:44:33;;;;;;;18.23;3.70;;;13.70;96.90;;;;;;4962513;28;20071;-92
2023/05/29 03:46:59;;;;;;;15.23;3.40;;;13.60;96.90;;;;;;4964237;28;20114;-93
2023/05/29 03:49:25;;;;;;;14.65;3.08;;;13.60;97.00;;;;;;4964453;28;20027;-92
2023/05/29 03:51:51;;;;;;;17.40;4.03;;;13.60;97.10;;;;;;4964941;28;20114;-91
2023/05/29 03:54:17;;;;;;;16.67;3.25;;;13.50;97.10;;;;;;4979454;28;20022;-93
2023/05/29 03:56:42;;;;;;;17.10;3.70;;;13.50;97.10;;;;;;4964245;28;20034;-93
2023/05/29 03:59:08;;;;;;;15.07;2.60;;;13.50;97.30;;;;;;4980460;28;20034;-92
2023/05/29 04:01:34;;;;;;;14.88;3.03;;;13.50;97.30;;;;;;4976035;28;20046;-91
2023/05/29 04:04:00;;;;;;;16.52;3.53;;;13.40;97.40;;;;;;4979121;28;20027;-90
2023/05/29 04:06:26;;;;;;;15.40;3.60;;;13.40;97.40;;;;;;4963943;28;20057;-92
2023/05/29 04:08:52;;;;;;;18.50;3.67;;;13.40;97.50;;;;;;4964213;28;20472;-91
2023/05/29 04:11:20;;;;;;;16.25;3.33;;;13.40;97.70;;;;;;4978409;28;20058;-91
2023/05/29 04:13:47;;;;;;;18.65;3.33;;;13.40;97.70;;;;;;4960339;28;20035;-91
2023/05/29 04:16:13;;;;;;;17.38;3.17;;;13.40;97.80;;;;;;4960723;28;20042;-93
2023/05/29 04:18:39;;;;;;;18.08;3.47;;;13.40;97.90;;;;;;4960924;28;20054;-94
2023/05/29 04:21:05;;;;;;;20.33;3.72;;;13.40;97.90;;;;;;4961133;28;20191;-92
2023/05/29 04:23:31;;;;;;;21.33;3.50;;;13.40;98.10;;;;;;4962531;28;20186;-91
2023/05/29 04:25:56;;;;;;;15.63;2.80;;;13.30;98.10;;;;;;4963849;28;20515;-93
2023/05/29 04:28:23;;;;;;;15.45;3.22;;;13.30;98.10;;;;;;4963107;28;20042;-93
2023/05/29 04:30:49;;;;;;;17.15;3.50;;;13.30;98.20;;;;;;4964759;28;20019;-92
2023/05/29 04:33:15;;;;;;;15.82;3.58;;;13.30;98.30;;;;;;4984258;28;20029;-93
2023/05/29 04:35:44;;;;;;;15.73;3.08;;;13.30;98.40;;;;;;4965286;28;20019;-92
2023/05/29 04:38:10;;;;;;;18.13;3.35;;;13.30;98.40;;;;;;4978835;28;20023;-92
2023/05/29 04:40:40;;;;;;;19.20;3.83;;;13.30;98.50;;;;;;4962693;28;20089;-92
2023/05/29 04:43:07;;;;;;;12.88;3.10;;;13.30;98.60;;;;;;4979106;28;20031;-92
2023/05/29 04:45:34;;;;;;;18.27;3.78;;;13.30;98.70;;;;;;4962395;28;20027;-92
2023/05/29 04:48:00;;;;;;;14.05;3.00;;;13.30;98.80;;;;;;4963322;28;20031;-92
2023/05/29 04:50:30;;;;;;;19.30;3.63;;;13.20;98.80;;;;;;4964614;28;20023;-91
2023/05/29 04:52:57;;;;;;;15.82;3.58;;;13.20;98.80;;;;;;4965172;28;20079;-93
2023/05/29 04:55:23;;;;;;;16.25;3.60;;;13.20;98.80;;;;;;4978139;28;20073;-93
2023/05/29 04:57:48;;;;;;;17.00;2.67;;;13.20;98.90;;;;;;4963015;28;20031;-93
2023/05/29 05:00:15;;;;;;;15.63;2.60;;;13.20;99.10;;;;;;4979645;28;20019;-91
2023/05/29 05:02:44;;;;;;;16.08;3.25;;;13.20;99.10;;;;;;4963866;28;20053;-92
2023/05/29 05:05:12;;;;;;;14.95;3.40;;;13.20;99.10;;;;;;4963257;28;20054;-91
2023/05/29 05:07:38;;;;;;;14.68;2.97;;;13.20;99.20;;;;;;4978250;28;20023;-92
2023/05/29 05:10:04;;;;;;;19.30;3.72;;;13.20;99.30;;;;;;4977938;28;20039;-92
2023/05/29 05:12:30;;;;;;;15.18;3.28;;;13.20;99.40;;;;;;4961969;28;20186;-92
2023/05/29 05:14:56;;;;;;;14.55;3.75;;;13.20;99.40;;;;;;4962554;28;20117;-93
2023/05/29 05:17:22;;;;;;;20.50;4.05;;;13.20;99.50;;;;;;4962189;28;20039;-93
2023/05/29 05:19:49;;;;;;;16.95;3.90;;;13.20;99.60;;;;;;4961723;28;20035;-94
2023/05/29 05:22:15;;;;;;;17.65;3.35;;;13.20;99.60;;;;;;4963383;28;20030;-94
2023/05/29 05:24:41;;;;;;;18.95;3.78;;;13.20;99.70;;;;;;4963478;28;20035;-92
2023/05/29 05:27:07;;;;;;;14.80;2.85;;;13.30;99.80;;;;;;4975479;28;20484;-90
2023/05/29 05:29:33;;;;;;;20.83;3.60;;;13.20;99.70;;;;;;4977348;28;20493;-90
2023/05/29 05:31:58;;;;;;;13.40;2.88;;;13.20;99.80;;;;;;4976520;28;20046;-92
2023/05/29 05:34:24;;;;;;;16.52;3.08;;;13.30;99.80;;;;;;4977869;28;20038;-92
2023/05/29 05:36:50;;;;;;;16.50;2.83;;;13.30;99.90;;;;;;4978716;28;20035;-90
2023/05/29 05:39:16;;;;;;;14.40;3.60;;;13.30;99.90;;;;;;4975422;28;20038;-90
2023/05/29 05:41:42;;;;;;;15.63;3.40;;;13.30;99.90;;;;;;4973215;28;20062;-91
2023/05/29 05:44:07;;;;;;;11.95;2.70;;;13.30;99.90;;;;;;4961995;28;20556;-91
2023/05/29 05:46:33;;;;;;;11.88;2.85;;;13.30;99.90;;;;;;4980035;28;20108;-90
2023/05/29 05:49:00;;;;;;;16.48;2.65;;;13.30;99.90;;;;;;4963503;28;20019;-91
2023/05/29 05:51:30;;;;;;;12.90;3.20;;;13.40;99.90;;;;;;4964975;28;20031;-92
2023/05/29 05:53:56;;;;;;;15.03;3.00;;;13.40;99.90;;;;;;4965446;28;20476;-90
2023/05/29 05:56:22;;;;;;;13.50;2.80;;;13.40;99.90;;;;;;4963706;28;20111;-90
2023/05/29 05:58:49;;;;;;;14.35;3.30;;;13.40;99.90;;;;;;4965745;28;20027;-93
2023/05/29 06:01:16;;;;;;;14.88;3.58;;;13.40;99.90;;;;;;4987627;28;20035;-95
2023/05/29 06:03:42;;;;;;;11.60;2.80;;;13.40;99.90;;;;;;4985416;28;20023;-92
2023/05/29 06:06:08;;;;;;;13.35;2.70;;;13.50;99.90;;;;;;4969770;28;20023;-93
2023/05/29 06:08:34;;;;;;;17.48;3.28;;;13.50;99.90;;;;;;4971335;28;20077;-94
2023/05/29 06:11:03;;;;;;;17.83;4.20;;;13.50;99.90;;;;;;4985660;28;20027;-93
2023/05/29 06:13:31;;;;;;;13.40;2.35;;;13.50;99.90;;;;;;4968499;28;20058;-91
2023/05/29 06:15:57;;;;;;;19.08;3.72;;;13.50;99.90;;;;;;4964881;28;20027;-93
2023/05/29 06:18:23;;;;;;;14.40;3.20;;;13.60;99.90;;;;;;4964973;28;20119;-93
2023/05/29 06:20:48;;;;;;;13.50;3.17;;;13.60;99.90;;;;;;4970742;28;20030;-91
2023/05/29 06:23:14;;;;;;;13.10;3.00;;;13.60;99.90;;;;;;4967574;28;20037;-93
2023/05/29 06:25:40;;;;;;;12.05;2.55;;;13.60;99.90;;;;;;4992955;28;20111;-90
2023/05/29 06:28:06;;;;;;;11.93;3.05;;;13.70;99.90;;;;;;4978011;28;20003;-90
2023/05/29 06:30:32;;;;;;;15.93;3.30;;;13.70;99.90;;;;;;4977433;28;20042;-92
2023/05/29 06:32:58;;;;;;;12.48;2.58;;;13.70;99.90;;;;;;4962446;28;20037;-89
2023/05/29 06:35:24;;;;;;;15.80;2.50;;;13.80;99.90;;;;;;4962884;28;20034;-94
2023/05/29 06:37:49;;;;;;;13.35;2.60;;;13.80;99.90;;;;;;4962323;28;20515;-91
2023/05/29 06:40:15;;;;;;;14.45;3.20;;;13.80;99.90;;;;;;4960962;28;20126;-92
2023/05/29 06:42:44;;;;;;;14.93;2.85;;;13.90;99.90;;;;;;4961173;28;20031;-90
2023/05/29 06:45:13;;;;;;;12.48;2.53;;;13.90;99.90;;;;;;4961550;28;20034;-91
2023/05/29 06:47:40;;;;;;;11.95;2.10;;;13.90;99.90;;;;;;4962727;28;20038;-92
2023/05/29 06:50:07;;;;;;;12.35;2.38;;;14.00;99.90;;;;;;4972751;28;20047;-91
2023/05/29 06:52:33;;;;;;;13.10;3.08;;;14.00;99.90;;;;;;4956219;28;20023;-92
2023/05/29 06:54:59;;;;;;;13.80;2.42;;;14.10;99.90;;;;;;4963447;28;20492;-91
2023/05/29 06:57:25;;;;;;;15.45;3.10;;;14.10;99.90;;;;;;4971871;28;20046;-91
2023/05/29 06:59:50;;;;;;;14.88;2.90;;;14.20;99.90;;;;;;4969775;28;20507;-93
2023/05/29 07:02:16;;;;;;;13.10;2.85;;;14.20;99.90;;;;;;4959963;28;20034;-93
2023/05/29 07:04:42;;;;;;;12.85;2.78;;;14.30;99.90;;;;;;4976366;28;20338;-92
2023/05/29 07:07:09;;;;;;;16.02;2.90;;;14.30;99.90;;;;;;4948542;28;20453;-91
2023/05/29 07:09:35;;;;;;;13.48;2.85;;;14.30;99.90;;;;;;4964990;28;20488;-93
2023/05/29 07:12:01;;;;;;;13.75;2.90;;;14.40;99.90;;;;;;4966786;28;20070;-93
2023/05/29 07:14:27;;;;;;;12.57;2.70;;;14.40;99.90;;;;;;4968085;28;20035;-96
2023/05/29 07:16:52;;;;;;;13.00;2.83;;;14.50;99.90;;;;;;4967863;28;20038;-93
2023/05/29 07:19:19;;;;;;;13.65;2.83;;;14.50;99.90;;;;;;4966185;28;20491;-93
2023/05/29 07:21:44;;;;;;;15.40;2.90;;;14.60;99.90;;;;;;4966535;28;20037;-93
2023/05/29 07:24:13;;;;;;;12.57;2.63;;;14.60;99.90;;;;;;4967669;28;20133;-91
2023/05/29 07:26:39;;;;;;;14.10;2.33;;;14.60;99.90;;;;;;4980323;28;20140;-93
2023/05/29 07:29:05;;;;;;;10.55;2.13;;;14.70;99.90;;;;;;4971788;28;20027;-91
2023/05/29 07:31:31;;;;;;;9.20;2.22;;;14.70;99.90;;;;;;4963394;28;20549;-92
2023/05/29 07:33:56;;;;;;;13.65;2.53;;;14.80;99.80;;;;;;4960649;28;20030;-92
2023/05/29 07:36:22;;;;;;;15.00;2.50;;;14.90;99.80;;;;;;4960831;28;20046;-91
2023/05/29 07:38:48;;;;;;;11.18;2.85;;;14.90;99.60;;;;;;4960149;28;20404;-90
2023/05/29 07:41:15;;;;;;;9.40;2.40;;;14.90;99.60;;;;;;4959773;28;20035;-91
2023/05/29 07:43:41;;;;;;;9.23;2.13;;;15.00;99.60;;;;;;4975484;28;20023;-91
2023/05/29 07:46:07;;;;;;;8.57;2.10;;;15.00;99.60;;;;;;4959913;28;20358;-92
2023/05/29 07:48:32;;;;;;;8.55;2.20;;;15.10;99.60;;;;;;4959673;28;20038;-91
2023/05/29 07:50:58;;;;;;;13.85;3.03;;;15.20;99.70;;;;;;4959223;28;20465;-92
2023/05/29 07:53:24;;;;;;;13.85;2.70;;;15.20;99.70;;;;;;4975196;28;20030;-92
2023/05/29 07:55:50;;;;;;;10.30;1.80;;;15.30;99.70;;;;;;4963227;28;20563;-93
2023/05/29 07:58:16;;;;;;;13.73;2.15;;;15.40;99.60;;;;;;4976995;28;20023;-90
2023/05/29 08:00:44;;;;;;;12.00;2.42;;;15.40;99.60;;;;;;4981687;28;20019;-91
2023/05/29 08:03:09;;;;;;;11.25;2.55;;;15.50;99.60;;;;;;4980468;28;20023;-91
2023/05/29 08:05:35;;;;;;;12.18;2.75;;;15.50;99.50;;;;;;4979328;28;20054;-91
2023/05/29 08:08:01;;;;;;;12.45;2.78;;;15.60;99.60;;;;;;4966649;28;20134;-89
2023/05/29 08:10:27;;;;;;;9.45;2.20;;;15.70;99.70;;;;;;4963593;28;20114;-93
2023/05/29 08:12:52;;;;;;;12.40;2.92;;;15.70;99.70;;;;;;4964434;28;20054;-92
2023/05/29 08:15:19;;;;;;;13.55;2.20;;;15.80;99.60;;;;;;4965107;28;20058;-92
2023/05/29 08:17:45;;;;;;;12.02;2.90;;;15.80;99.50;;;;;;4963492;28;20062;-92
2023/05/29 08:20:10;;;;;;;17.58;3.58;;;15.90;99.40;;;;;;4962691;28;20046;-94
2023/05/29 08:22:37;;;;;;;11.77;2.72;;;16.00;99.40;;;;;;4963149;28;20038;-91
2023/05/29 08:25:03;;;;;;;12.75;2.63;;;16.00;99.40;;;;;;4963130;28;20066;-91
2023/05/29 08:27:30;;;;;;;11.30;2.33;;;16.10;99.50;;;;;;4963049;28;20053;-92
2023/05/29 08:29:56;;;;;;;12.32;2.60;;;16.20;99.50;;;;;;4964301;28;20030;-93
2023/05/29 08:32:22;;;;;;;10.85;2.45;;;16.20;99.50;;;;;;4963051;28;20109;-92
2023/05/29 08:34:48;;;;;;;10.80;2.22;;;16.20;99.50;;;;;;4963220;28;20034;-93
2023/05/29 08:37:13;;;;;;;12.60;2.65;;;16.30;99.50;;;;;;4963415;28;20054;-92
2023/05/29 08:39:39;;;;;;;11.73;2.83;;;16.40;99.40;;;;;;4963389;28;20035;-92
2023/05/29 08:42:10;;;;;;;10.30;2.72;;;16.40;99.20;;;;;;4963452;28;20428;-93
2023/05/29 08:44:38;;;;;;;11.25;2.67;;;16.50;99.10;;;;;;4981736;28;20050;-90
2023/05/29 08:47:06;;;;;;;11.73;2.72;;;16.50;98.80;;;;;;4977274;28;20027;-90
2023/05/29 08:49:42;;;;;;;13.52;2.60;;;16.60;98.80;;;;;;5003736;28;20019;-91
2023/05/29 08:52:20;;;;;;;12.70;2.28;;;16.60;98.90;;;;;;4980925;28;20027;-92
2023/05/29 08:54:46;;;;;;;11.05;2.40;;;16.70;98.80;;;;;;4979072;28;20098;-93
2023/05/29 08:57:13;;;;;;;13.73;2.75;;;16.70;98.80;;;;;;4962793;28;20030;-92
2023/05/29 08:59:41;;;;;;;10.73;2.58;;;16.80;98.80;;;;;;4979022;28;20495;-92
2023/05/29 09:02:07;;;;;;;12.77;2.67;;;16.80;98.60;;;;;;4978494;28;20046;-93
2023/05/29 09:04:33;;;;;;;9.30;2.35;;;16.90;98.60;;;;;;4962586;28;20035;-94
2023/05/29 09:06:59;;;;;;;7.97;2.58;;;16.90;98.70;;;;;;4963647;28;20019;-93
2023/05/29 09:09:29;;;;;;;12.00;2.30;;;17.00;98.80;;;;;;4979345;28;20110;-95
2023/05/29 09:11:56;;;;;;;9.23;2.50;;;17.00;98.90;;;;;;4963103;28;20083;-94
2023/05/29 09:14:42;;;;;;;11.75;2.40;;;17.10;99.00;;;;;;4962234;28;20027;-94
2023/05/29 09:17:09;;;;;;;12.38;2.72;;;17.20;98.90;;;;;;4979228;28;20042;-93
2023/05/29 09:19:37;;;;;;;10.13;2.50;;;17.20;98.70;;;;;;4978340;28;20151;-92
2023/05/29 09:22:14;;;;;;;9.95;2.20;;;17.30;98.40;;;;;;4961628;28;20472;-91
2023/05/29 09:24:41;;;;;;;8.00;2.30;;;17.30;98.10;;;;;;4962320;28;20047;-93
2023/05/29 09:27:09;;;;;;;13.50;2.33;;;17.40;98.20;;;;;;4962251;28;20370;-93
2023/05/29 09:29:41;;;;;;;10.55;2.38;;;17.40;98.10;;;;;;4962437;28;20026;-93
2023/05/29 09:32:14;;;;;;;8.60;2.08;;;17.50;98.00;;;;;;4962139;28;20031;-93
2023/05/29 09:34:41;;;;;;;12.18;2.65;;;17.50;97.80;;;;;;4982417;28;20534;-93
2023/05/29 09:37:08;;;;;;;9.85;2.50;;;17.60;97.80;;;;;;4977529;28;20047;-90
2023/05/29 09:39:51;;;;;;;9.50;2.22;;;17.60;97.80;;;;;;4981814;28;20053;-92
2023/05/29 09:42:17;;;;;;;10.50;2.40;;;17.70;98.00;;;;;;4962555;28;20035;-91
2023/05/29 09:44:54;;;;;;;9.13;2.00;;;17.70;98.00;;;;;;4977651;28;20094;-92
2023/05/29 09:47:22;;;;;;;10.00;2.42;;;17.80;98.00;;;;;;4977331;28;20488;-91
2023/05/29 09:49:47;;;;;;;9.90;2.58;;;17.90;98.00;;;;;;4961838;28;20050;-95
2023/05/29 09:52:15;;;;;;;10.65;2.88;;;17.90;97.80;;;;;;4968414;28;20023;-91
2023/05/29 09:54:45;;;;;;;10.63;2.80;;;18.00;97.70;;;;;;4970792;28;20046;-91
2023/05/29 09:57:14;;;;;;;15.13;2.90;;;18.00;97.60;;;;;;4972610;28;20031;-90
2023/05/29 09:59:44;;;;;;;10.48;2.60;;;18.10;97.70;;;;;;4971359;28;20202;-90
2023/05/29 10:02:12;;;;;;;9.23;2.20;;;18.10;97.70;;;;;;4979743;28;20515;-92
2023/05/29 10:04:40;;;;;;;5.38;2.08;;;18.20;97.80;;;;;;4960996;28;20030;-91
2023/05/29 10:07:12;;;;;;;8.80;2.13;;;18.20;97.90;;;;;;4961430;28;20027;-92
2023/05/29 10:09:47;;;;;;;12.77;3.03;;;18.30;98.10;;;;;;4977317;28;20023;-93
2023/05/29 10:12:16;;;;;;;10.68;2.70;;;18.40;98.00;;;;;;4976427;28;20042;-94
2023/05/29 10:14:46;;;;;;;17.08;2.38;;;18.40;97.60;;;;;;4977727;28;20033;-94
2023/05/29 10:17:14;;;;;;;8.82;1.85;;;18.40;97.50;;;;;;4976455;28;20138;-94
2023/05/29 10:19:40;;;;;;;9.93;2.40;;;18.50;97.60;;;;;;4976669;28;20026;-94
2023/05/29 10:22:06;;;;;;;9.40;2.38;;;18.50;97.80;;;;;;4959773;28;20484;-94
2023/05/29 10:24:33;;;;;;;11.80;2.78;;;18.50;97.70;;;;;;4963787;28;20021;-94
2023/05/29 10:26:59;;;;;;;8.63;2.55;;;18.60;97.60;;;;;;4995991;28;20030;-92
2023/05/29 10:29:37;;;;;;;8.52;2.70;;;18.60;97.40;;;;;;4993567;28;20014;-94
2023/05/29 10:32:22;;;;;;;6.38;2.13;;;18.70;97.50;;;;;;4976722;28;20078;-94
2023/05/29 10:34:56;;;;;;;9.35;2.97;;;18.70;97.20;;;;;;4976720;28;20027;-93
2023/05/29 10:37:37;;;;;;;10.02;2.60;;;18.80;97.20;;;;;;4976928;28;20048;-93
2023/05/29 10:40:14;;;;;;;11.52;2.55;;;18.90;97.10;;;;;;4977710;28;20031;-91
2023/05/29 10:42:49;;;;;;;10.05;2.38;;;18.90;96.90;;;;;;4977179;28;20083;-92
2023/05/29 10:45:32;;;;;;;8.70;2.65;;;18.90;97.20;;;;;;4977870;28;20035;-94
2023/05/29 10:48:08;;;;;;;10.63;2.60;;;19.00;96.70;;;;;;4977321;28;20033;-93
2023/05/29 10:50:47;;;;;;;10.38;3.28;;;19.10;96.40;;;;;;4976686;28;20026;-93
2023/05/29 10:53:18;;;;;;;10.65;2.40;;;19.10;96.20;;;;;;4976839;28;20018;-92
2023/05/29 10:55:45;;;;;;;10.73;2.60;;;19.10;96.10;;;;;;4960365;28;20035;-92
2023/05/29 10:58:25;;;;;;;8.48;2.38;;;19.10;95.90;;;;;;4976533;28;20027;-94
2023/05/29 11:00:56;;;;;;;8.35;2.72;;;19.20;95.70;;;;;;4977034;28;20062;-95
2023/05/29 11:03:40;;;;;;;7.72;2.22;;;19.20;95.40;;;;;;4961261;28;20033;-94
2023/05/29 11:06:19;;;;;;;10.10;2.50;;;19.20;95.00;;;;;;4960104;28;20031;-93
2023/05/29 11:08:54;;;;;;;11.05;3.38;;;19.30;95.00;;;;;;4975913;28;20061;-94
2023/05/29 11:11:32;;;;;;;7.95;2.38;;;19.30;94.70;;;;;;4976026;28;20061;-94
2023/05/29 11:14:04;;;;;;;10.73;2.55;;;19.40;94.50;;;;;;4975992;28;20043;-93
2023/05/29 11:16:32;;;;;;;9.13;2.53;;;19.40;94.40;;;;;;4976646;28;20026;-93
2023/05/29 11:19:11;;;;;;;11.48;2.83;;;19.40;94.40;;;;;;4976473;28;20027;-93
2023/05/29 11:22:06;;;;;;;7.93;2.35;;;19.50;94.20;;;;;;4976617;28;20122;-93
2023/05/29 11:24:38;;;;;;;11.35;3.13;;;19.50;93.90;;;;;;4975711;28;20031;-92
2023/05/29 11:27:07;;;;;;;8.75;2.28;;;19.50;93.70;;;;;;4976057;28;20074;-93
2023/05/29 11:29:34;;;;;;;10.13;2.72;;;19.60;93.50;;;;;;4969338;28;20011;-92
2023/05/29 11:32:12;;;;;;;10.77;2.85;;;19.60;93.20;;;;;;4985848;28;20507;-93
2023/05/29 11:34:41;;;;;;;10.27;2.63;;;19.60;93.00;;;;;;4979858;28;20026;-90
2023/05/29 11:37:07;;;;;;;10.00;3.08;;;19.60;93.00;;;;;;4995958;28;20086;-89
2023/05/29 11:39:36;;;;;;;8.55;2.33;;;19.60;93.00;;;;;;4977992;28;20011;-91
2023/05/29 11:42:03;;;;;;;9.40;2.80;;;19.70;92.90;;;;;;4975958;28;20042;-91
2023/05/29 11:44:29;;;;;;;10.18;2.90;;;19.70;92.90;;;;;;4964019;28;20027;-91
2023/05/29 11:47:02;;;;;;;10.27;2.72;;;19.80;92.90;;;;;;4963581;28;20030;-92
2023/05/29 11:49:33;;;;;;;12.98;3.15;;;19.80;92.70;;;;;;4981424;28;20034;-92
2023/05/29 11:52:10;;;;;;;8.88;2.72;;;19.90;92.30;;;;;;4982403;28;20063;-93
2023/05/29 11:54:36;;;;;;;10.40;2.83;;;19.90;91.90;;;;;;4963416;28;20546;-91
2023/05/29 11:57:05;;;;;;;10.27;3.03;;;19.90;92.10;;;;;;4963695;28;20117;-92
2023/05/29 11:59:34;;;;;;;10.20;2.60;;;19.90;92.10;;;;;;4979666;28;20116;-93
2023/05/29 12:02:03;;;;;;;10.60;2.92;;;20.00;92.20;;;;;;4963181;28;20476;-93
2023/05/29 12:04:29;;;;;;;12.00;2.88;;;20.00;92.00;;;;;;4963178;28;20155;-93
2023/05/29 12:06:55;;;;;;;10.52;2.50;;;20.00;91.60;;;;;;4966812;28;20027;-92
2023/05/29 12:09:29;;;;;;;10.05;2.78;;;20.10;91.70;;;;;;4965412;28;20382;-92
2023/05/29 12:12:04;;;;;;;13.48;3.17;;;20.10;91.70;;;;;;4965695;28;20086;-93
2023/05/29 12:14:30;;;;;;;8.13;2.65;;;20.10;91.80;;;;;;4966761;28;20031;-93
2023/05/29 12:16:56;;;;;;;11.05;2.63;;;20.20;91.80;;;;;;4963825;28;20539;-93
2023/05/29 12:19:22;;;;;;;12.05;3.15;;;20.30;91.60;;;;;;4963437;28;20038;-93
2023/05/29 12:21:48;;;;;;;10.02;2.83;;;20.30;91.40;;;;;;4963508;28;20023;-93
2023/05/29 12:24:14;;;;;;;9.23;2.60;;;20.30;91.50;;;;;;4964008;28;20038;-93
2023/05/29 12:26:40;;;;;;;8.13;2.88;;;20.30;91.50;;;;;;4964472;28;20030;-93
2023/05/29 12:29:05;;;;;;;10.10;2.70;;;20.40;91.50;;;;;;4963903;28;20042;-93
2023/05/29 12:31:32;;;;;;;12.27;3.30;;;20.40;91.30;;;;;;4968074;28;20038;-94
2023/05/29 12:34:14;;;;;;;8.82;2.70;;;20.50;91.30;;;;;;4963646;28;20035;-93
2023/05/29 12:36:41;;;;;;;12.98;3.70;;;20.50;91.30;;;;;;4962939;28;20435;-94
2023/05/29 12:39:10;;;;;;;12.90;3.58;;;20.60;91.20;;;;;;4978881;28;20027;-93
2023/05/29 12:41:37;;;;;;;8.93;2.60;;;20.60;91.10;;;;;;4963064;28;20035;-93